sensor_id;sensor_type;location;lat;lon;timestamp;pressure;altitude;pressure_sealevel;temperature;humidity
3102;BME280;1561;42.666;23.392;2024-02-16T00:01:49;95750.38;;;2.50;100.00
3102;BME280;1561;42.666;23.392;2024-02-16T00:04:18;95775.34;;;2.56;100.00
3102;BME280;1561;42.666;23.392;2024-02-16T00:06:52;95779.75;;;2.51;100.00
3102;BME280;1561;42.666;23.392;2024-02-16T00:09:23;95777.38;;;2.48;100.00
3102;BME280;1561;42.666;23.392;2024-02-16T00:11:50;95768.41;;;2.41;100.00
3102;BME280;1561;42.666;23.392;2024-02-16T00:14:19;95775.84;;;2.44;100.00
3102;BME280;1561;42.666;23.392;2024-02-16T00:16:50;95771.16;;;2.55;100.00
3102;BME280;1561;42.666;23.392;2024-02-16T00:19:17;95781.47;;;2.51;100.00
3102;BME280;1561;42.666;23.392;2024-02-16T00:21:46;95780.41;;;2.56;100.00
3102;BME280;1561;42.666;23.392;2024-02-16T00:24:16;95730.50;;;2.23;100.00
3102;BME280;1561;42.666;23.392;2024-02-16T00:26:49;95785.03;;;2.45;100.00
3102;BME280;1561;42.666;23.392;2024-02-16T00:29:18;95756.22;;;2.31;100.00
3102;BME280;1561;42.666;23.392;2024-02-16T00:31:48;95747.41;;;2.21;100.00
3102;BME280;1561;42.666;23.392;2024-02-16T00:34:21;95787.13;;;2.56;100.00
3102;BME280;1561;42.666;23.392;2024-02-16T00:36:52;95778.09;;;2.50;100.00
3102;BME280;1561;42.666;23.392;2024-02-16T00:39:19;95784.84;;;2.30;100.00
3102;BME280;1561;42.666;23.392;2024-02-16T00:42:08;95763.72;;;2.12;100.00
3102;BME280;1561;42.666;23.392;2024-02-16T00:44:54;95741.81;;;1.93;100.00
3102;BME280;1561;42.666;23.392;2024-02-16T00:47:21;95751.03;;;2.14;100.00
3102;BME280;1561;42.666;23.392;2024-02-16T00:49:51;95785.94;;;2.44;100.00
3102;BME280;1561;42.666;23.392;2024-02-16T00:52:27;95791.47;;;2.11;100.00
3102;BME280;1561;42.666;23.392;2024-02-16T00:54:56;95770.06;;;2.21;100.00
3102;BME280;1561;42.666;23.392;2024-02-16T00:57:34;95796.38;;;2.35;100.00
3102;BME280;1561;42.666;23.392;2024-02-16T01:00:07;95751.81;;;2.16;100.00
3102;BME280;1561;42.666;23.392;2024-02-16T01:02:37;95784.09;;;2.28;100.00
3102;BME280;1561;42.666;23.392;2024-02-16T01:05:09;95779.22;;;2.23;100.00
3102;BME280;1561;42.666;23.392;2024-02-16T01:07:44;95790.25;;;2.21;100.00
3102;BME280;1561;42.666;23.392;2024-02-16T01:10:14;95784.50;;;2.17;100.00
3102;BME280;1561;42.666;23.392;2024-02-16T01:12:50;95775.16;;;1.99;100.00
3102;BME280;1561;42.666;23.392;2024-02-16T01:15:23;95790.06;;;2.04;100.00
3102;BME280;1561;42.666;23.392;2024-02-16T01:17:56;95784.97;;;2.05;100.00
3102;BME280;1561;42.666;23.392;2024-02-16T01:20:28;95780.09;;;2.01;100.00
3102;BME280;1561;42.666;23.392;2024-02-16T01:23:00;95782.81;;;1.96;100.00
3102;BME280;1561;42.666;23.392;2024-02-16T01:25:32;95778.50;;;1.98;100.00
3102;BME280;1561;42.666;23.392;2024-02-16T01:28:05;95776.41;;;2.09;100.00
3102;BME280;1561;42.666;23.392;2024-02-16T01:30:32;95768.66;;;2.14;100.00
3102;BME280;1561;42.666;23.392;2024-02-16T01:33:02;95776.38;;;2.31;100.00
3102;BME280;1561;42.666;23.392;2024-02-16T01:35:30;95665.25;;;1.55;100.00
3102;BME280;1561;42.666;23.392;2024-02-16T01:38:04;95776.13;;;2.17;100.00
3102;BME280;1561;42.666;23.392;2024-02-16T01:40:32;95775.47;;;2.12;100.00
3102;BME280;1561;42.666;23.392;2024-02-16T01:43:08;95746.28;;;1.86;100.00
3102;BME280;1561;42.666;23.392;2024-02-16T01:45:42;95771.94;;;1.94;100.00
3102;BME280;1561;42.666;23.392;2024-02-16T01:48:13;95743.41;;;1.95;100.00
3102;BME280;1561;42.666;23.392;2024-02-16T01:50:44;95755.75;;;2.01;100.00
3102;BME280;1561;42.666;23.392;2024-02-16T01:53:13;95761.81;;;1.96;100.00
3102;BME280;1561;42.666;23.392;2024-02-16T01:55:44;95670.09;;;1.60;100.00
3102;BME280;1561;42.666;23.392;2024-02-16T01:58:15;95764.13;;;1.80;100.00
3102;BME280;1561;42.666;23.392;2024-02-16T02:00:47;95756.25;;;2.09;100.00
3102;BME280;1561;42.666;23.392;2024-02-16T02:03:20;95758.44;;;1.75;100.00
3102;BME280;1561;42.666;23.392;2024-02-16T02:05:49;95757.19;;;1.85;100.00
3102;BME280;1561;42.666;23.392;2024-02-16T02:08:20;95755.97;;;1.74;100.00
3102;BME280;1561;42.666;23.392;2024-02-16T02:10:50;95729.47;;;1.65;100.00
3102;BME280;1561;42.666;23.392;2024-02-16T02:13:25;95758.38;;;1.77;100.00
3102;BME280;1561;42.666;23.392;2024-02-16T02:15:56;95754.47;;;1.91;100.00
3102;BME280;1561;42.666;23.392;2024-02-16T02:18:31;95761.72;;;1.77;100.00
3102;BME280;1561;42.666;23.392;2024-02-16T02:21:08;95746.69;;;1.76;100.00
3102;BME280;1561;42.666;23.392;2024-02-16T02:23:39;95760.03;;;1.99;100.00
3102;BME280;1561;42.666;23.392;2024-02-16T02:26:09;95756.44;;;1.83;100.00
3102;BME280;1561;42.666;23.392;2024-02-16T02:28:43;95766.09;;;1.72;100.00
3102;BME280;1561;42.666;23.392;2024-02-16T02:31:13;95755.72;;;1.58;100.00
3102;BME280;1561;42.666;23.392;2024-02-16T02:33:43;95768.03;;;1.66;100.00
3102;BME280;1561;42.666;23.392;2024-02-16T02:36:19;95601.31;;;0.50;100.00
3102;BME280;1561;42.666;23.392;2024-02-16T02:38:52;95770.28;;;1.50;100.00
3102;BME280;1561;42.666;23.392;2024-02-16T02:41:20;95769.78;;;1.42;100.00
3102;BME280;1561;42.666;23.392;2024-02-16T02:43:51;95736.13;;;1.45;100.00
3102;BME280;1561;42.666;23.392;2024-02-16T02:46:22;95763.22;;;1.60;100.00
3102;BME280;1561;42.666;23.392;2024-02-16T02:48:51;95764.56;;;1.47;100.00
3102;BME280;1561;42.666;23.392;2024-02-16T02:51:18;95759.31;;;1.30;100.00
3102;BME280;1561;42.666;23.392;2024-02-16T02:53:49;95718.38;;;1.03;100.00
3102;BME280;1561;42.666;23.392;2024-02-16T02:56:17;95765.94;;;1.32;100.00
3102;BME280;1561;42.666;23.392;2024-02-16T02:58:48;95760.53;;;1.20;100.00
3102;BME280;1561;42.666;23.392;2024-02-16T03:01:19;95739.97;;;1.09;100.00
3102;BME280;1561;42.666;23.392;2024-02-16T03:03:52;95771.34;;;1.45;100.00
3102;BME280;1561;42.666;23.392;2024-02-16T03:06:22;95766.75;;;1.33;100.00
3102;BME280;1561;42.666;23.392;2024-02-16T03:08:53;95766.63;;;1.13;100.00
3102;BME280;1561;42.666;23.392;2024-02-16T03:11:21;95760.44;;;1.23;100.00
3102;BME280;1561;42.666;23.392;2024-02-16T03:13:49;95757.09;;;1.22;100.00
3102;BME280;1561;42.666;23.392;2024-02-16T03:16:23;95760.97;;;1.08;100.00
3102;BME280;1561;42.666;23.392;2024-02-16T03:18:52;95756.38;;;1.19;100.00
3102;BME280;1561;42.666;23.392;2024-02-16T03:21:21;95726.25;;;0.94;100.00
3102;BME280;1561;42.666;23.392;2024-02-16T03:23:53;95751.88;;;1.04;100.00
3102;BME280;1561;42.666;23.392;2024-02-16T03:26:22;95756.16;;;1.02;100.00
3102;BME280;1561;42.666;23.392;2024-02-16T03:28:57;95732.03;;;0.96;100.00
3102;BME280;1561;42.666;23.392;2024-02-16T03:31:26;95764.97;;;1.13;100.00
3102;BME280;1561;42.666;23.392;2024-02-16T03:33:57;95737.84;;;0.98;100.00
3102;BME280;1561;42.666;23.392;2024-02-16T03:36:25;95765.84;;;1.12;100.00
3102;BME280;1561;42.666;23.392;2024-02-16T03:39:00;95745.50;;;0.95;100.00
3102;BME280;1561;42.666;23.392;2024-02-16T03:41:37;95739.19;;;0.84;100.00
3102;BME280;1561;42.666;23.392;2024-02-16T03:44:14;95766.88;;;1.07;100.00
3102;BME280;1561;42.666;23.392;2024-02-16T03:46:45;95768.59;;;1.06;100.00
3102;BME280;1561;42.666;23.392;2024-02-16T03:49:15;95772.88;;;1.03;100.00
3102;BME280;1561;42.666;23.392;2024-02-16T03:51:46;95760.47;;;0.98;100.00
3102;BME280;1561;42.666;23.392;2024-02-16T03:54:16;95778.50;;;0.86;100.00
3102;BME280;1561;42.666;23.392;2024-02-16T03:56:45;95762.44;;;0.90;100.00
3102;BME280;1561;42.666;23.392;2024-02-16T03:59:17;95744.28;;;0.82;100.00
3102;BME280;1561;42.666;23.392;2024-02-16T04:01:45;95772.69;;;1.09;100.00
3102;BME280;1561;42.666;23.392;2024-02-16T04:04:14;95770.50;;;1.23;100.00
3102;BME280;1561;42.666;23.392;2024-02-16T04:06:44;95764.03;;;1.16;100.00
3102;BME280;1561;42.666;23.392;2024-02-16T04:09:23;95760.16;;;0.84;100.00
3102;BME280;1561;42.666;23.392;2024-02-16T04:12:02;95626.59;;;-0.02;100.00
3102;BME280;1561;42.666;23.392;2024-02-16T04:14:39;95777.13;;;0.78;100.00
3102;BME280;1561;42.666;23.392;2024-02-16T04:17:27;95767.47;;;0.66;100.00
3102;BME280;1561;42.666;23.392;2024-02-16T04:20:00;95713.13;;;0.39;100.00
3102;BME280;1561;42.666;23.392;2024-02-16T04:22:33;95761.78;;;0.61;100.00
3102;BME280;1561;42.666;23.392;2024-02-16T04:25:18;95653.84;;;0.08;100.00
3102;BME280;1561;42.666;23.392;2024-02-16T04:27:52;95769.03;;;0.70;100.00
3102;BME280;1561;42.666;23.392;2024-02-16T04:30:27;95762.84;;;0.54;100.00
3102;BME280;1561;42.666;23.392;2024-02-16T04:32:55;95759.41;;;0.56;100.00
3102;BME280;1561;42.666;23.392;2024-02-16T04:35:31;95737.78;;;0.52;100.00
3102;BME280;1561;42.666;23.392;2024-02-16T04:37:58;95631.56;;;-0.01;100.00
3102;BME280;1561;42.666;23.392;2024-02-16T04:40:37;95774.75;;;0.73;100.00
3102;BME280;1561;42.666;23.392;2024-02-16T04:43:07;95761.56;;;0.67;100.00
3102;BME280;1561;42.666;23.392;2024-02-16T04:45:35;95772.03;;;0.55;100.00
3102;BME280;1561;42.666;23.392;2024-02-16T04:48:06;95764.97;;;0.41;100.00
3102;BME280;1561;42.666;23.392;2024-02-16T04:50:38;95765.72;;;0.43;100.00
3102;BME280;1561;42.666;23.392;2024-02-16T04:53:07;95764.69;;;0.49;100.00
3102;BME280;1561;42.666;23.392;2024-02-16T04:55:36;95779.47;;;0.58;100.00
3102;BME280;1561;42.666;23.392;2024-02-16T04:58:05;95787.19;;;0.53;100.00
3102;BME280;1561;42.666;23.392;2024-02-16T05:00:36;95777.19;;;0.52;100.00
3102;BME280;1561;42.666;23.392;2024-02-16T05:03:06;95777.94;;;0.54;100.00
3102;BME280;1561;42.666;23.392;2024-02-16T05:08:27;95759.72;;;0.22;100.00
3102;BME280;1561;42.666;23.392;2024-02-16T05:11:14;95773.81;;;0.27;100.00
3102;BME280;1561;42.666;23.392;2024-02-16T05:13:46;95788.59;;;0.36;100.00
3102;BME280;1561;42.666;23.392;2024-02-16T05:16:14;95791.66;;;0.19;100.00
3102;BME280;1561;42.666;23.392;2024-02-16T05:19:09;95771.31;;;0.00;100.00
3102;BME280;1561;42.666;23.392;2024-02-16T05:21:38;95795.50;;;0.29;100.00
3102;BME280;1561;42.666;23.392;2024-02-16T05:24:07;95798.00;;;0.29;100.00
3102;BME280;1561;42.666;23.392;2024-02-16T05:26:47;95804.25;;;0.17;100.00
3102;BME280;1561;42.666;23.392;2024-02-16T05:29:18;95801.31;;;0.31;100.00
3102;BME280;1561;42.666;23.392;2024-02-16T05:31:50;95802.50;;;0.46;100.00
3102;BME280;1561;42.666;23.392;2024-02-16T05:34:21;95802.97;;;0.57;100.00
3102;BME280;1561;42.666;23.392;2024-02-16T05:36:52;95792.94;;;0.57;100.00
3102;BME280;1561;42.666;23.392;2024-02-16T05:39:21;95809.75;;;0.79;100.00
3102;BME280;1561;42.666;23.392;2024-02-16T05:42:02;95809.53;;;1.56;100.00
3102;BME280;1561;42.666;23.392;2024-02-16T05:44:39;95809.16;;;2.09;100.00
3102;BME280;1561;42.666;23.392;2024-02-16T05:47:24;95811.72;;;2.51;100.00
3102;BME280;1561;42.666;23.392;2024-02-16T05:49:54;95763.75;;;3.11;100.00
3102;BME280;1561;42.666;23.392;2024-02-16T05:52:30;95819.69;;;3.59;100.00
3102;BME280;1561;42.666;23.392;2024-02-16T05:54:58;95817.81;;;4.18;100.00
3102;BME280;1561;42.666;23.392;2024-02-16T05:57:31;95824.22;;;4.60;100.00
3102;BME280;1561;42.666;23.392;2024-02-16T06:00:01;95825.47;;;3.42;100.00
3102;BME280;1561;42.666;23.392;2024-02-16T06:02:33;95834.88;;;4.31;100.00
3102;BME280;1561;42.666;23.392;2024-02-16T06:05:04;95836.41;;;5.03;100.00
3102;BME280;1561;42.666;23.392;2024-02-16T06:07:46;95827.41;;;6.26;100.00
3102;BME280;1561;42.666;23.392;2024-02-16T06:10:24;95817.69;;;6.64;100.00
3102;BME280;1561;42.666;23.392;2024-02-16T06:12:53;95825.78;;;6.70;100.00
3102;BME280;1561;42.666;23.392;2024-02-16T06:15:23;95833.84;;;7.06;100.00
3102;BME280;1561;42.666;23.392;2024-02-16T06:17:52;95819.41;;;7.36;100.00
3102;BME280;1561;42.666;23.392;2024-02-16T06:20:23;95817.44;;;6.98;100.00
3102;BME280;1561;42.666;23.392;2024-02-16T06:22:52;95833.28;;;7.87;100.00
3102;BME280;1561;42.666;23.392;2024-02-16T06:25:22;95838.09;;;7.35;100.00
3102;BME280;1561;42.666;23.392;2024-02-16T06:27:54;95849.78;;;7.10;100.00
3102;BME280;1561;42.666;23.392;2024-02-16T06:30:22;95764.66;;;7.59;100.00
3102;BME280;1561;42.666;23.392;2024-02-16T06:32:54;95798.38;;;8.82;100.00
3102;BME280;1561;42.666;23.392;2024-02-16T06:35:26;95829.47;;;11.41;100.00
3102;BME280;1561;42.666;23.392;2024-02-16T06:38:01;95816.66;;;11.30;88.21
3102;BME280;1561;42.666;23.392;2024-02-16T06:40:40;95836.69;;;9.70;100.00
3102;BME280;1561;42.666;23.392;2024-02-16T06:43:13;95830.84;;;10.65;94.24
3102;BME280;1561;42.666;23.392;2024-02-16T06:46:04;95826.47;;;10.67;92.43
3102;BME280;1561;42.666;23.392;2024-02-16T06:48:32;95829.81;;;10.44;89.70
3102;BME280;1561;42.666;23.392;2024-02-16T06:51:03;95738.75;;;9.96;89.35
3102;BME280;1561;42.666;23.392;2024-02-16T06:53:42;95831.41;;;10.58;85.67
3102;BME280;1561;42.666;23.392;2024-02-16T06:56:10;95827.63;;;10.51;89.22
3102;BME280;1561;42.666;23.392;2024-02-16T06:58:48;95818.47;;;12.18;81.82
3102;BME280;1561;42.666;23.392;2024-02-16T07:01:18;95821.25;;;12.79;73.25
3102;BME280;1561;42.666;23.392;2024-02-16T07:03:45;95824.59;;;12.37;71.23
3102;BME280;1561;42.666;23.392;2024-02-16T07:06:22;95804.06;;;11.73;72.89
3102;BME280;1561;42.666;23.392;2024-02-16T07:08:54;95827.84;;;12.61;75.81
3102;BME280;1561;42.666;23.392;2024-02-16T07:11:21;95817.97;;;12.35;67.10
3102;BME280;1561;42.666;23.392;2024-02-16T07:13:56;95829.00;;;12.46;69.11
3102;BME280;1561;42.666;23.392;2024-02-16T07:16:28;95814.16;;;13.65;65.94
3102;BME280;1561;42.666;23.392;2024-02-16T07:18:59;95836.88;;;11.90;67.58
3102;BME280;1561;42.666;23.392;2024-02-16T07:21:31;95798.66;;;12.31;67.07
3102;BME280;1561;42.666;23.392;2024-02-16T07:24:07;95814.44;;;14.01;65.91
3102;BME280;1561;42.666;23.392;2024-02-16T07:26:36;95801.66;;;13.81;65.39
3102;BME280;1561;42.666;23.392;2024-02-16T07:29:10;95818.75;;;14.31;61.09
3102;BME280;1561;42.666;23.392;2024-02-16T07:31:42;95825.69;;;13.29;61.02
3102;BME280;1561;42.666;23.392;2024-02-16T07:34:13;95821.56;;;14.58;59.71
3102;BME280;1561;42.666;23.392;2024-02-16T07:36:50;95823.69;;;13.74;60.64
3102;BME280;1561;42.666;23.392;2024-02-16T07:39:20;95826.38;;;12.37;66.38
3102;BME280;1561;42.666;23.392;2024-02-16T07:42:01;95816.56;;;15.04;59.54
3102;BME280;1561;42.666;23.392;2024-02-16T07:44:32;95808.81;;;15.32;55.72
3102;BME280;1561;42.666;23.392;2024-02-16T07:47:00;95823.63;;;14.24;56.39
3102;BME280;1561;42.666;23.392;2024-02-16T07:49:30;95822.75;;;13.13;61.69
3102;BME280;1561;42.666;23.392;2024-02-16T07:52:11;95816.28;;;15.45;56.90
3102;BME280;1561;42.666;23.392;2024-02-16T07:54:49;95820.88;;;13.56;60.64
3102;BME280;1561;42.666;23.392;2024-02-16T07:57:21;95818.69;;;13.82;61.50
3102;BME280;1561;42.666;23.392;2024-02-16T07:59:52;95807.97;;;16.33;54.39
3102;BME280;1561;42.666;23.392;2024-02-16T08:02:23;95822.47;;;16.34;51.56
3102;BME280;1561;42.666;23.392;2024-02-16T08:04:52;95807.59;;;15.92;55.42
3102;BME280;1561;42.666;23.392;2024-02-16T08:07:25;95809.91;;;15.30;54.11
3102;BME280;1561;42.666;23.392;2024-02-16T08:09:59;95821.16;;;14.91;55.93
3102;BME280;1561;42.666;23.392;2024-02-16T08:12:36;95824.44;;;15.40;55.52
3102;BME280;1561;42.666;23.392;2024-02-16T08:15:09;95824.41;;;15.12;53.88
3102;BME280;1561;42.666;23.392;2024-02-16T08:17:49;95810.53;;;17.48;50.27
3102;BME280;1561;42.666;23.392;2024-02-16T08:20:43;95818.16;;;17.32;48.94
3102;BME280;1561;42.666;23.392;2024-02-16T08:23:15;95819.91;;;15.98;52.00
3102;BME280;1561;42.666;23.392;2024-02-16T08:25:42;95798.63;;;16.95;49.71
3102;BME280;1561;42.666;23.392;2024-02-16T08:28:14;95820.84;;;14.56;54.83
3102;BME280;1561;42.666;23.392;2024-02-16T08:30:47;95838.22;;;13.43;65.67
3102;BME280;1561;42.666;23.392;2024-02-16T08:33:18;95836.13;;;14.38;65.33
3102;BME280;1561;42.666;23.392;2024-02-16T08:36:24;95839.75;;;13.76;63.19
3102;BME280;1561;42.666;23.392;2024-02-16T08:38:55;95829.84;;;13.92;66.06
3102;BME280;1561;42.666;23.392;2024-02-16T08:41:23;95816.00;;;14.72;63.55
3102;BME280;1561;42.666;23.392;2024-02-16T08:43:55;95815.25;;;17.35;56.45
3102;BME280;1561;42.666;23.392;2024-02-16T08:46:32;95796.34;;;16.20;56.85
3102;BME280;1561;42.666;23.392;2024-02-16T08:49:02;95799.25;;;15.80;56.19
3102;BME280;1561;42.666;23.392;2024-02-16T08:51:39;95788.47;;;17.36;51.54
3102;BME280;1561;42.666;23.392;2024-02-16T08:54:10;95821.13;;;17.88;50.13
3102;BME280;1561;42.666;23.392;2024-02-16T08:56:53;95817.66;;;17.11;50.44
3102;BME280;1561;42.666;23.392;2024-02-16T08:59:26;95820.28;;;17.02;53.00
3102;BME280;1561;42.666;23.392;2024-02-16T09:02:09;95822.50;;;15.52;54.92
3102;BME280;1561;42.666;23.392;2024-02-16T09:05:03;95823.91;;;15.83;54.07
3102;BME280;1561;42.666;23.392;2024-02-16T09:07:45;95721.16;;;17.12;50.87
3102;BME280;1561;42.666;23.392;2024-02-16T09:10:18;95829.94;;;17.78;49.57
3102;BME280;1561;42.666;23.392;2024-02-16T09:12:48;95816.03;;;17.45;48.28
3102;BME280;1561;42.666;23.392;2024-02-16T09:15:25;95821.13;;;18.14;48.27
3102;BME280;1561;42.666;23.392;2024-02-16T09:18:25;95820.38;;;16.75;47.88
3102;BME280;1561;42.666;23.392;2024-02-16T09:20:55;95833.38;;;15.92;50.71
3102;BME280;1561;42.666;23.392;2024-02-16T09:23:41;95814.59;;;17.51;48.74
3102;BME280;1561;42.666;23.392;2024-02-16T09:26:10;95820.22;;;17.72;47.24
3102;BME280;1561;42.666;23.392;2024-02-16T09:28:55;95797.13;;;17.10;48.82
3102;BME280;1561;42.666;23.392;2024-02-16T09:31:26;95820.06;;;16.95;47.08
3102;BME280;1561;42.666;23.392;2024-02-16T09:33:59;95737.63;;;16.41;47.92
3102;BME280;1561;42.666;23.392;2024-02-16T09:36:33;95788.03;;;17.92;45.78
3102;BME280;1561;42.666;23.392;2024-02-16T09:39:02;95820.00;;;19.47;43.51
3102;BME280;1561;42.666;23.392;2024-02-16T09:41:34;95815.50;;;18.60;43.54
3102;BME280;1561;42.666;23.392;2024-02-16T09:44:05;95787.94;;;19.48;41.92
3102;BME280;1561;42.666;23.392;2024-02-16T09:46:38;95808.50;;;19.42;42.11
3102;BME280;1561;42.666;23.392;2024-02-16T09:49:12;95777.03;;;19.69;41.62
3102;BME280;1561;42.666;23.392;2024-02-16T09:51:46;95788.47;;;18.21;43.28
3102;BME280;1561;42.666;23.392;2024-02-16T09:54:17;95818.50;;;18.89;42.71
3102;BME280;1561;42.666;23.392;2024-02-16T09:56:45;95817.41;;;17.22;44.50
3102;BME280;1561;42.666;23.392;2024-02-16T09:59:22;95815.66;;;17.91;43.77
3102;BME280;1561;42.666;23.392;2024-02-16T10:02:03;95786.56;;;15.96;47.24
3102;BME280;1561;42.666;23.392;2024-02-16T10:04:37;95804.78;;;18.13;44.57
3102;BME280;1561;42.666;23.392;2024-02-16T10:07:08;95799.19;;;17.41;44.77
3102;BME280;1561;42.666;23.392;2024-02-16T10:09:42;95752.44;;;18.77;42.99
3102;BME280;1561;42.666;23.392;2024-02-16T10:12:22;95796.31;;;16.57;46.00
3102;BME280;1561;42.666;23.392;2024-02-16T10:15:01;95775.13;;;17.41;46.06
3102;BME280;1561;42.666;23.392;2024-02-16T10:17:33;95784.25;;;16.57;47.07
3102;BME280;1561;42.666;23.392;2024-02-16T10:20:23;95728.78;;;18.56;43.65
3102;BME280;1561;42.666;23.392;2024-02-16T10:23:08;95764.72;;;19.71;42.01
3102;BME280;1561;42.666;23.392;2024-02-16T10:25:49;95773.03;;;17.95;44.01
3102;BME280;1561;42.666;23.392;2024-02-16T10:28:24;95767.81;;;19.66;41.97
3102;BME280;1561;42.666;23.392;2024-02-16T10:31:00;95676.03;;;19.05;42.21
3102;BME280;1561;42.666;23.392;2024-02-16T10:33:34;95765.19;;;18.46;43.00
3102;BME280;1561;42.666;23.392;2024-02-16T10:36:12;95757.72;;;18.59;43.14
3102;BME280;1561;42.666;23.392;2024-02-16T10:38:44;95738.31;;;18.47;43.39
3102;BME280;1561;42.666;23.392;2024-02-16T10:41:28;95756.63;;;17.79;44.36
3102;BME280;1561;42.666;23.392;2024-02-16T10:43:56;95736.53;;;16.79;45.58
3102;BME280;1561;42.666;23.392;2024-02-16T10:46:28;95759.81;;;18.06;45.33
3102;BME280;1561;42.666;23.392;2024-02-16T10:48:56;95749.97;;;19.71;42.53
3102;BME280;1561;42.666;23.392;2024-02-16T10:51:42;95730.31;;;20.62;40.76
3102;BME280;1561;42.666;23.392;2024-02-16T10:54:22;95682.06;;;18.57;42.43
3102;BME280;1561;42.666;23.392;2024-02-16T10:56:55;95655.31;;;17.34;44.05
3102;BME280;1561;42.666;23.392;2024-02-16T10:59:24;95745.16;;;18.15;44.53
3102;BME280;1561;42.666;23.392;2024-02-16T11:02:00;95679.47;;;19.05;42.31
3102;BME280;1561;42.666;23.392;2024-02-16T11:04:36;95737.28;;;17.91;44.77
3102;BME280;1561;42.666;23.392;2024-02-16T11:07:27;95749.44;;;16.43;47.71
3102;BME280;1561;42.666;23.392;2024-02-16T11:10:00;95737.03;;;16.02;49.51
3102;BME280;1561;42.666;23.392;2024-02-16T11:12:36;95706.25;;;16.46;48.87
3102;BME280;1561;42.666;23.392;2024-02-16T11:15:10;95717.81;;;16.59;47.37
3102;BME280;1561;42.666;23.392;2024-02-16T11:17:40;95730.81;;;15.95;49.26
3102;BME280;1561;42.666;23.392;2024-02-16T11:20:13;95717.81;;;17.71;47.10
3102;BME280;1561;42.666;23.392;2024-02-16T11:22:51;95677.81;;;17.91;44.97
3102;BME280;1561;42.666;23.392;2024-02-16T11:25:31;95739.00;;;17.74;45.47
3102;BME280;1561;42.666;23.392;2024-02-16T11:27:59;95726.94;;;17.32;45.14
3102;BME280;1561;42.666;23.392;2024-02-16T11:30:34;95730.94;;;16.83;46.31
3102;BME280;1561;42.666;23.392;2024-02-16T11:33:05;95727.03;;;17.73;45.50
3102;BME280;1561;42.666;23.392;2024-02-16T11:35:33;95708.34;;;18.29;44.41
3102;BME280;1561;42.666;23.392;2024-02-16T11:38:08;95719.25;;;18.72;43.75
3102;BME280;1561;42.666;23.392;2024-02-16T11:40:37;95721.28;;;17.54;44.40
3102;BME280;1561;42.666;23.392;2024-02-16T11:43:07;95707.88;;;17.07;45.63
3102;BME280;1561;42.666;23.392;2024-02-16T11:45:47;95719.22;;;16.71;47.29
3102;BME280;1561;42.666;23.392;2024-02-16T11:48:26;95715.75;;;16.45;47.50
3102;BME280;1561;42.666;23.392;2024-02-16T11:51:14;95716.19;;;17.19;46.99
3102;BME280;1561;42.666;23.392;2024-02-16T11:53:55;95702.16;;;16.96;47.74
3102;BME280;1561;42.666;23.392;2024-02-16T11:56:26;95705.50;;;16.71;48.30
3102;BME280;1561;42.666;23.392;2024-02-16T11:58:58;95601.31;;;16.46;47.40
3102;BME280;1561;42.666;23.392;2024-02-16T12:01:31;95704.97;;;17.02;47.29
3102;BME280;1561;42.666;23.392;2024-02-16T12:04:01;95700.66;;;16.68;48.46
3102;BME280;1561;42.666;23.392;2024-02-16T12:06:37;95687.28;;;16.72;48.31
3102;BME280;1561;42.666;23.392;2024-02-16T12:09:07;95692.38;;;15.84;50.77
3102;BME280;1561;42.666;23.392;2024-02-16T12:11:36;95691.03;;;15.53;51.36
3102;BME280;1561;42.666;23.392;2024-02-16T12:14:07;95692.56;;;14.62;55.01
3102;BME280;1561;42.666;23.392;2024-02-16T12:16:55;95670.66;;;15.14;55.03
3102;BME280;1561;42.666;23.392;2024-02-16T12:19:28;95594.41;;;14.76;52.71
3102;BME280;1561;42.666;23.392;2024-02-16T12:21:58;95679.56;;;14.16;56.56
3102;BME280;1561;42.666;23.392;2024-02-16T12:24:29;95680.66;;;14.33;55.99
3102;BME280;1561;42.666;23.392;2024-02-16T12:27:04;95678.63;;;15.30;55.31
3102;BME280;1561;42.666;23.392;2024-02-16T12:29:34;95678.41;;;15.60;53.39
3102;BME280;1561;42.666;23.392;2024-02-16T12:32:01;95661.94;;;15.70;53.21
3102;BME280;1561;42.666;23.392;2024-02-16T12:34:32;95599.59;;;14.48;54.75
3102;BME280;1561;42.666;23.392;2024-02-16T12:37:12;95662.59;;;14.99;56.04
3102;BME280;1561;42.666;23.392;2024-02-16T12:39:52;95681.53;;;14.98;56.29
3102;BME280;1561;42.666;23.392;2024-02-16T12:42:22;95659.41;;;15.34;54.44
3102;BME280;1561;42.666;23.392;2024-02-16T12:44:56;95672.19;;;15.53;54.83
3102;BME280;1561;42.666;23.392;2024-02-16T12:47:24;95668.09;;;15.14;55.50
3102;BME280;1561;42.666;23.392;2024-02-16T12:49:57;95638.16;;;14.67;55.98
3102;BME280;1561;42.666;23.392;2024-02-16T12:52:29;95671.69;;;14.94;56.40
3102;BME280;1561;42.666;23.392;2024-02-16T12:55:10;95678.59;;;14.84;57.42
3102;BME280;1561;42.666;23.392;2024-02-16T12:57:47;95675.47;;;14.90;58.44
3102;BME280;1561;42.666;23.392;2024-02-16T13:00:23;95669.13;;;14.08;62.20
3102;BME280;1561;42.666;23.392;2024-02-16T13:03:01;95673.16;;;13.43;66.64
3102;BME280;1561;42.666;23.392;2024-02-16T13:05:30;95666.53;;;13.10;70.22
3102;BME280;1561;42.666;23.392;2024-02-16T13:08:03;95630.84;;;13.37;68.68
3102;BME280;1561;42.666;23.392;2024-02-16T13:10:32;95626.97;;;13.52;67.36
3102;BME280;1561;42.666;23.392;2024-02-16T13:12:59;95657.69;;;13.73;66.05
3102;BME280;1561;42.666;23.392;2024-02-16T13:15:32;95670.28;;;13.76;66.84
3102;BME280;1561;42.666;23.392;2024-02-16T13:18:00;95673.41;;;13.89;66.94
3102;BME280;1561;42.666;23.392;2024-02-16T13:20:31;95670.66;;;14.30;64.80
3102;BME280;1561;42.666;23.392;2024-02-16T13:23:03;95659.84;;;14.26;63.83
3102;BME280;1561;42.666;23.392;2024-02-16T13:25:34;95663.69;;;14.02;65.57
3102;BME280;1561;42.666;23.392;2024-02-16T13:28:05;95646.84;;;14.47;63.79
3102;BME280;1561;42.666;23.392;2024-02-16T13:30:34;95652.25;;;14.25;63.59
3102;BME280;1561;42.666;23.392;2024-02-16T13:33:07;95657.13;;;14.28;65.44
3102;BME280;1561;42.666;23.392;2024-02-16T13:35:37;95576.06;;;13.57;66.95
3102;BME280;1561;42.666;23.392;2024-02-16T13:38:12;95625.84;;;13.36;71.02
3102;BME280;1561;42.666;23.392;2024-02-16T13:40:44;95664.09;;;13.48;71.90
3102;BME280;1561;42.666;23.392;2024-02-16T13:43:23;95661.56;;;13.18;74.43
3102;BME280;1561;42.666;23.392;2024-02-16T13:45:54;95649.84;;;13.65;72.77